sensor_id;sensor_type;location;lat;lon;timestamp;pressure;altitude;pressure_sealevel;temperature;humidity
75414;BME280;64758;52.122;5.404;2023-05-10T00:00:15;101075.69;;;12.67;100.00
75414;BME280;64758;52.122;5.404;2023-05-10T00:02:42;101082.50;;;12.69;100.00
75414;BME280;64758;52.122;5.404;2023-05-10T00:05:10;101078.34;;;12.67;100.00
75414;BME280;64758;52.122;5.404;2023-05-10T00:07:36;101075.69;;;12.67;100.00
75414;BME280;64758;52.122;5.404;2023-05-10T00:10:03;101079.00;;;12.68;100.00
75414;BME280;64758;52.122;5.404;2023-05-10T00:12:29;101072.22;;;12.66;100.00
75414;BME280;64758;52.122;5.404;2023-05-10T00:14:56;101075.06;;;12.65;100.00
75414;BME280;64758;52.122;5.404;2023-05-10T00:17:23;101065.41;;;12.64;100.00
75414;BME280;64758;52.122;5.404;2023-05-10T00:19:49;101076.31;;;12.68;100.00
75414;BME280;64758;52.122;5.404;2023-05-10T00:22:16;101069.56;;;12.66;100.00
75414;BME280;64758;52.122;5.404;2023-05-10T00:24:42;101067.06;;;12.65;100.00
75414;BME280;64758;52.122;5.404;2023-05-10T00:27:09;101069.56;;;12.66;100.00
75414;BME280;64758;52.122;5.404;2023-05-10T00:29:35;101066.88;;;12.66;100.00
75414;BME280;64758;52.122;5.404;2023-05-10T00:32:02;101073.88;;;12.67;100.00
75414;BME280;64758;52.122;5.404;2023-05-10T00:34:28;101068.31;;;12.68;100.00
75414;BME280;64758;52.122;5.404;2023-05-10T00:36:55;101067.06;;;12.65;100.00
75414;BME280;64758;52.122;5.404;2023-05-10T00:39:22;101071.84;;;12.69;100.00
75414;BME280;64758;52.122;5.404;2023-05-10T00:41:48;101068.16;;;12.70;100.00
75414;BME280;64758;52.122;5.404;2023-05-10T00:44:15;101068.97;;;12.70;100.00
75414;BME280;64758;52.122;5.404;2023-05-10T00:46:41;101068.56;;;12.73;100.00
75414;BME280;64758;52.122;5.404;2023-05-10T00:49:08;101071.88;;;12.75;100.00
75414;BME280;64758;52.122;5.404;2023-05-10T00:51:35;101068.41;;;12.75;100.00
75414;BME280;64758;52.122;5.404;2023-05-10T00:54:02;101073.09;;;12.73;100.00
75414;BME280;64758;52.122;5.404;2023-05-10T00:56:29;101062.81;;;12.70;100.00
75414;BME280;64758;52.122;5.404;2023-05-10T00:58:56;101077.41;;;12.74;100.00
75414;BME280;64758;52.122;5.404;2023-05-10T01:01:23;101078.22;;;12.74;100.00
75414;BME280;64758;52.122;5.404;2023-05-10T01:03:49;101070.59;;;12.71;100.00
75414;BME280;64758;52.122;5.404;2023-05-10T01:06:16;101071.88;;;12.75;100.00
75414;BME280;64758;52.122;5.404;2023-05-10T01:08:43;101081.72;;;12.75;100.00
75414;BME280;64758;52.122;5.404;2023-05-10T01:11:09;101074.75;;;12.74;100.00
75414;BME280;64758;52.122;5.404;2023-05-10T01:13:38;101064.88;;;12.74;100.00
75414;BME280;64758;52.122;5.404;2023-05-10T01:16:06;101085.41;;;12.74;100.00
75414;BME280;64758;52.122;5.404;2023-05-10T01:18:36;101082.53;;;12.75;100.00
75414;BME280;64758;52.122;5.404;2023-05-10T01:32:36;101070.59;;;12.71;100.00
75414;BME280;64758;52.122;5.404;2023-05-10T01:35:10;101079.63;;;12.70;100.00
75414;BME280;64758;52.122;5.404;2023-05-10T01:37:47;101066.06;;;12.66;100.00
75414;BME280;64758;52.122;5.404;2023-05-10T01:40:26;101074.69;;;12.68;100.00
75414;BME280;64758;52.122;5.404;2023-05-10T01:43:01;101082.03;;;12.66;100.00
75414;BME280;64758;52.122;5.404;2023-05-10T01:45:46;101075.06;;;12.65;100.00
75414;BME280;64758;52.122;5.404;2023-05-10T01:48:17;101079.38;;;12.66;100.00
75414;BME280;64758;52.122;5.404;2023-05-10T01:50:46;101079.63;;;12.70;100.00
75414;BME280;64758;52.122;5.404;2023-05-10T01:53:17;101077.16;;;12.69;100.00
75414;BME280;64758;52.122;5.404;2023-05-10T01:55:47;101076.56;;;12.73;100.00
75414;BME280;64758;52.122;5.404;2023-05-10T01:58:32;101073.91;;;12.73;100.00
75414;BME280;64758;52.122;5.404;2023-05-10T02:01:03;101077.41;;;12.74;100.00
75414;BME280;64758;52.122;5.404;2023-05-10T02:03:31;101077.97;;;12.69;100.00
75414;BME280;64758;52.122;5.404;2023-05-10T02:05:59;101087.22;;;12.73;100.00
75414;BME280;64758;52.122;5.404;2023-05-10T02:08:26;101083.53;;;12.74;100.00
75414;BME280;64758;52.122;5.404;2023-05-10T02:10:56;101081.09;;;12.73;100.00
75414;BME280;64758;52.122;5.404;2023-05-10T02:13:25;101078.41;;;12.73;100.00
75414;BME280;64758;52.122;5.404;2023-05-10T02:15:54;101086.22;;;12.74;100.00
75414;BME280;64758;52.122;5.404;2023-05-10T02:18:22;101078.41;;;12.73;100.00
75414;BME280;64758;52.122;5.404;2023-05-10T02:20:51;101076.94;;;12.70;100.00
75414;BME280;64758;52.122;5.404;2023-05-10T02:23:20;101087.44;;;12.72;100.00
75414;BME280;64758;52.122;5.404;2023-05-10T02:25:48;101089.66;;;12.68;100.00
75414;BME280;64758;52.122;5.404;2023-05-10T02:28:16;101096.44;;;12.71;100.00
75414;BME280;64758;52.122;5.404;2023-05-10T02:30:44;101097.47;;;12.70;100.00
75414;BME280;64758;52.122;5.404;2023-05-10T02:33:11;101094.16;;;12.68;100.00
75414;BME280;64758;52.122;5.404;2023-05-10T02:35:38;101089.03;;;12.67;100.00
75414;BME280;64758;52.122;5.404;2023-05-10T02:38:06;101097.84;;;12.67;100.00
75414;BME280;64758;52.122;5.404;2023-05-10T02:40:35;101103.56;;;12.64;100.00
75414;BME280;64758;52.122;5.404;2023-05-10T02:43:03;101099.25;;;12.63;100.00
75414;BME280;64758;52.122;5.404;2023-05-10T02:45:32;101116.06;;;12.64;100.00
75414;BME280;64758;52.122;5.404;2023-05-10T02:48:01;101113.59;;;12.62;100.00
75414;BME280;64758;52.122;5.404;2023-05-10T02:50:30;101109.72;;;12.65;100.00
75414;BME280;64758;52.122;5.404;2023-05-10T02:53:06;101103.75;;;12.63;100.00
75414;BME280;64758;52.122;5.404;2023-05-10T02:55:38;101111.56;;;12.64;100.00
75414;BME280;64758;52.122;5.404;2023-05-10T02:58:06;101107.81;;;12.59;100.00
75414;BME280;64758;52.122;5.404;2023-05-10T03:00:33;101114.53;;;12.55;100.00
75414;BME280;64758;52.122;5.404;2023-05-10T03:03:00;101103.22;;;12.46;100.00
75414;BME280;64758;52.122;5.404;2023-05-10T03:05:26;101118.31;;;12.39;100.00
75414;BME280;64758;52.122;5.404;2023-05-10T03:07:53;101108.78;;;12.30;100.00
75414;BME280;64758;52.122;5.404;2023-05-10T03:10:24;101121.03;;;12.25;100.00
75414;BME280;64758;52.122;5.404;2023-05-10T03:13:06;101113.16;;;12.17;100.00
75414;BME280;64758;52.122;5.404;2023-05-10T03:20:48;101121.13;;;12.17;100.00
75414;BME280;64758;52.122;5.404;2023-05-10T03:23:35;101118.84;;;12.14;100.00
75414;BME280;64758;52.122;5.404;2023-05-10T03:26:04;101127.06;;;12.12;100.00
75414;BME280;64758;52.122;5.404;2023-05-10T03:28:33;101123.75;;;12.10;100.00
75414;BME280;64758;52.122;5.404;2023-05-10T03:31:00;101130.72;;;12.11;100.00
75414;BME280;64758;52.122;5.404;2023-05-10T03:33:27;101126.59;;;12.09;100.00
75414;BME280;64758;52.122;5.404;2023-05-10T03:35:54;101128.69;;;12.13;100.00
75414;BME280;64758;52.122;5.404;2023-05-10T03:38:20;101130.53;;;12.13;100.00
75414;BME280;64758;52.122;5.404;2023-05-10T03:40:47;101127.88;;;12.13;100.00
75414;BME280;64758;52.122;5.404;2023-05-10T03:43:13;101127.88;;;12.13;100.00
75414;BME280;64758;52.122;5.404;2023-05-10T03:45:40;101122.38;;;12.14;100.00
75414;BME280;64758;52.122;5.404;2023-05-10T03:48:06;101120.13;;;12.18;100.00
75414;BME280;64758;52.122;5.404;2023-05-10T03:50:33;101119.50;;;12.16;100.00
75414;BME280;64758;52.122;5.404;2023-05-10T03:52:59;101120.72;;;12.13;100.00
75414;BME280;64758;52.122;5.404;2023-05-10T03:55:26;101120.88;;;12.12;100.00
75414;BME280;64758;52.122;5.404;2023-05-10T03:57:53;101127.94;;;12.19;100.00
75414;BME280;64758;52.122;5.404;2023-05-10T04:00:20;101125.44;;;12.18;100.00
75414;BME280;64758;52.122;5.404;2023-05-10T04:02:46;101131.41;;;12.20;100.00
75414;BME280;64758;52.122;5.404;2023-05-10T04:05:13;101129.13;;;12.17;100.00
75414;BME280;64758;52.122;5.404;2023-05-10T04:07:39;101128.75;;;12.20;100.00
75414;BME280;64758;52.122;5.404;2023-05-10T04:10:06;101126.47;;;12.17;100.00
75414;BME280;64758;52.122;5.404;2023-05-10T04:12:33;101138.00;;;12.24;100.00
75414;BME280;64758;52.122;5.404;2023-05-10T04:14:59;101136.38;;;12.23;100.00
75414;BME280;64758;52.122;5.404;2023-05-10T04:17:26;101138.38;;;12.21;100.00
75414;BME280;64758;52.122;5.404;2023-05-10T04:19:53;101136.09;;;12.18;100.00
75414;BME280;64758;52.122;5.404;2023-05-10T04:22:21;101134.91;;;12.20;100.00
75414;BME280;64758;52.122;5.404;2023-05-10T04:24:47;101130.41;;;12.21;100.00
75414;BME280;64758;52.122;5.404;2023-05-10T04:27:14;101135.72;;;12.21;100.00
75414;BME280;64758;52.122;5.404;2023-05-10T04:29:40;101124.91;;;12.22;100.00
75414;BME280;64758;52.122;5.404;2023-05-10T04:32:07;101141.69;;;12.23;100.00
75414;BME280;64758;52.122;5.404;2023-05-10T04:34:34;101136.38;;;12.23;100.00
75414;BME280;64758;52.122;5.404;2023-05-10T04:37:00;101126.72;;;12.22;100.00
75414;BME280;64758;52.122;5.404;2023-05-10T04:39:27;101137.84;;;12.25;100.00
75414;BME280;64758;52.122;5.404;2023-05-10T04:41:54;101140.69;;;12.24;100.00
75414;BME280;64758;52.122;5.404;2023-05-10T04:44:20;101134.97;;;12.27;100.00
75414;BME280;64758;52.122;5.404;2023-05-10T04:46:47;101129.38;;;12.22;100.00
75414;BME280;64758;52.122;5.404;2023-05-10T04:49:14;101145.63;;;12.27;100.00
75414;BME280;64758;52.122;5.404;2023-05-10T04:51:40;101147.66;;;12.25;100.00
75414;BME280;64758;52.122;5.404;2023-05-10T04:54:07;101149.31;;;12.26;100.00
75414;BME280;64758;52.122;5.404;2023-05-10T04:56:33;101145.47;;;12.28;100.00
75414;BME280;64758;52.122;5.404;2023-05-10T04:59:00;101153.88;;;12.32;100.00
75414;BME280;64758;52.122;5.404;2023-05-10T05:01:26;101153.88;;;12.32;100.00
75414;BME280;64758;52.122;5.404;2023-05-10T05:03:53;101149.81;;;12.36;100.00
75414;BME280;64758;52.122;5.404;2023-05-10T05:06:20;101157.44;;;12.39;100.00
75414;BME280;64758;52.122;5.404;2023-05-10T05:08:51;101153.13;;;12.38;100.00
75414;BME280;64758;52.122;5.404;2023-05-10T05:11:17;101160.09;;;12.39;100.00
75414;BME280;64758;52.122;5.404;2023-05-10T05:13:44;101159.72;;;12.42;100.00
75414;BME280;64758;52.122;5.404;2023-05-10T05:16:10;101168.97;;;12.46;100.00
75414;BME280;64758;52.122;5.404;2023-05-10T05:18:38;101162.84;;;12.45;100.00
75414;BME280;64758;52.122;5.404;2023-05-10T05:21:17;101163.84;;;12.44;100.00
75414;BME280;64758;52.122;5.404;2023-05-10T05:23:44;101180.09;;;12.49;100.00
75414;BME280;64758;52.122;5.404;2023-05-10T05:26:11;101170.44;;;12.48;100.00
75414;BME280;64758;52.122;5.404;2023-05-10T05:28:38;101178.44;;;12.48;100.00
75414;BME280;64758;52.122;5.404;2023-05-10T05:31:05;101179.88;;;12.51;100.00
75414;BME280;64758;52.122;5.404;2023-05-10T05:33:33;101184.66;;;12.55;100.00
75414;BME280;64758;52.122;5.404;2023-05-10T05:36:04;101183.00;;;12.54;100.00
75414;BME280;64758;52.122;5.404;2023-05-10T05:38:31;101186.94;;;12.58;100.00
75414;BME280;64758;52.122;5.404;2023-05-10T05:40:58;101182.00;;;12.55;100.00
75414;BME280;64758;52.122;5.404;2023-05-10T05:43:24;101185.69;;;12.54;100.00
75414;BME280;64758;52.122;5.404;2023-05-10T05:45:54;101187.13;;;12.57;100.00
75414;BME280;64758;52.122;5.404;2023-05-10T05:48:24;101190.81;;;12.56;100.00
75414;BME280;64758;52.122;5.404;2023-05-10T05:50:54;101198.63;;;12.57;100.00
75414;BME280;64758;52.122;5.404;2023-05-10T05:53:22;101190.16;;;12.54;100.00
75414;BME280;64758;52.122;5.404;2023-05-10T05:55:55;101193.22;;;12.51;100.00
75414;BME280;64758;52.122;5.404;2023-05-10T05:58:22;101201.84;;;12.53;100.00
75414;BME280;64758;52.122;5.404;2023-05-10T06:00:49;101202.97;;;12.44;100.00
75414;BME280;64758;52.122;5.404;2023-05-10T06:03:16;101208.03;;;12.39;100.00
75414;BME280;64758;52.122;5.404;2023-05-10T06:05:43;101218.69;;;12.39;100.00
75414;BME280;64758;52.122;5.404;2023-05-10T06:08:10;101217.63;;;12.33;100.00
75414;BME280;64758;52.122;5.404;2023-05-10T06:10:37;101227.44;;;12.33;100.00
75414;BME280;64758;52.122;5.404;2023-05-10T06:13:03;101220.66;;;12.30;100.00
75414;BME280;64758;52.122;5.404;2023-05-10T06:15:30;101223.78;;;12.34;100.00
75414;BME280;64758;52.122;5.404;2023-05-10T06:17:56;101215.34;;;12.30;100.00
75414;BME280;64758;52.122;5.404;2023-05-10T06:20:23;101223.50;;;12.29;100.00
75414;BME280;64758;52.122;5.404;2023-05-10T06:22:49;101233.72;;;12.25;100.00
75414;BME280;64758;52.122;5.404;2023-05-10T06:25:16;101233.72;;;12.25;100.00
75414;BME280;64758;52.122;5.404;2023-05-10T06:27:44;101230.84;;;12.27;100.00
75414;BME280;64758;52.122;5.404;2023-05-10T06:30:17;101232.50;;;12.28;100.00
75414;BME280;64758;52.122;5.404;2023-05-10T06:32:43;101235.00;;;12.29;100.00
75414;BME280;64758;52.122;5.404;2023-05-10T06:35:11;101234.00;;;12.30;100.00
75414;BME280;64758;52.122;5.404;2023-05-10T06:37:38;101231.75;;;12.34;100.00
75414;BME280;64758;52.122;5.404;2023-05-10T06:40:05;101229.31;;;12.32;100.00
75414;BME280;64758;52.122;5.404;2023-05-10T06:42:32;101234.06;;;12.37;100.00
75414;BME280;64758;52.122;5.404;2023-05-10T06:44:59;101244.53;;;12.38;100.00
75414;BME280;64758;52.122;5.404;2023-05-10T06:47:25;101232.66;;;12.41;100.00
75414;BME280;64758;52.122;5.404;2023-05-10T06:49:52;101240.47;;;12.42;100.00
75414;BME280;64758;52.122;5.404;2023-05-10T06:52:18;101244.78;;;12.43;100.00
75414;BME280;64758;52.122;5.404;2023-05-10T06:54:45;101239.47;;;12.43;100.00
75414;BME280;64758;52.122;5.404;2023-05-10T06:57:11;101243.56;;;12.46;100.00
75414;BME280;64758;52.122;5.404;2023-05-10T06:59:56;101258.28;;;12.42;100.00
75414;BME280;64758;52.122;5.404;2023-05-10T07:02:23;101247.84;;;12.40;100.00
75414;BME280;64758;52.122;5.404;2023-05-10T07:04:49;101253.34;;;12.39;100.00
75414;BME280;64758;52.122;5.404;2023-05-10T07:07:18;101247.38;;;12.37;100.00
75414;BME280;64758;52.122;5.404;2023-05-10T07:09:45;101260.31;;;12.40;100.00
75414;BME280;64758;52.122;5.404;2023-05-10T07:12:12;101261.97;;;12.41;100.00
75414;BME280;64758;52.122;5.404;2023-05-10T07:14:41;101270.59;;;12.43;100.00
75414;BME280;64758;52.122;5.404;2023-05-10T07:17:08;101260.56;;;12.45;100.00
75414;BME280;64758;52.122;5.404;2023-05-10T07:19:35;101264.16;;;12.52;100.00
75414;BME280;64758;52.122;5.404;2023-05-10T07:22:02;101262.38;;;12.59;100.00
75414;BME280;64758;52.122;5.404;2023-05-10T07:24:28;101261.19;;;12.61;100.00
75414;BME280;64758;52.122;5.404;2023-05-10T07:26:56;101268.19;;;12.62;100.00
75414;BME280;64758;52.122;5.404;2023-05-10T07:29:22;101271.38;;;12.58;100.00
75414;BME280;64758;52.122;5.404;2023-05-10T07:31:50;101280.41;;;12.57;100.00
75414;BME280;64758;52.122;5.404;2023-05-10T07:34:17;101287.19;;;12.59;100.00
75414;BME280;64758;52.122;5.404;2023-05-10T07:36:43;101287.00;;;12.61;100.00
75414;BME280;64758;52.122;5.404;2023-05-10T07:39:10;101287.47;;;12.64;100.00
75414;BME280;64758;52.122;5.404;2023-05-10T07:41:41;101282.41;;;12.69;100.00
75414;BME280;64758;52.122;5.404;2023-05-10T07:44:08;101292.09;;;12.76;100.00
75414;BME280;64758;52.122;5.404;2023-05-10T07:46:35;101284.91;;;12.91;100.00
75414;BME280;64758;52.122;5.404;2023-05-10T07:49:01;101286.97;;;12.96;100.00
75414;BME280;64758;52.122;5.404;2023-05-10T07:51:28;101284.91;;;12.91;100.00
75414;BME280;64758;52.122;5.404;2023-05-10T07:53:54;101290.13;;;12.99;100.00
75414;BME280;64758;52.122;5.404;2023-05-10T07:56:29;101286.44;;;13.00;100.00
75414;BME280;64758;52.122;5.404;2023-05-10T07:58:56;101294.31;;;13.08;100.00
75414;BME280;64758;52.122;5.404;2023-05-10T08:01:23;101297.59;;;13.10;100.00
75414;BME280;64758;52.122;5.404;2023-05-10T08:03:50;101303.69;;;13.04;100.00
75414;BME280;64758;52.122;5.404;2023-05-10T08:06:18;101309.78;;;12.98;100.00
75414;BME280;64758;52.122;5.404;2023-05-10T08:08:46;101302.19;;;12.95;100.00
75414;BME280;64758;52.122;5.404;2023-05-10T08:11:16;101314.94;;;13.00;100.00
75414;BME280;64758;52.122;5.404;2023-05-10T08:13:44;101320.63;;;12.97;100.00
75414;BME280;64758;52.122;5.404;2023-05-10T08:16:11;101323.75;;;13.00;100.00
75414;BME280;64758;52.122;5.404;2023-05-10T08:18:38;101312.63;;;12.97;100.00
75414;BME280;64758;52.122;5.404;2023-05-10T08:21:05;101320.63;;;12.97;100.00
75414;BME280;64758;52.122;5.404;2023-05-10T08:23:32;101321.47;;;12.97;100.00
75414;BME280;64758;52.122;5.404;2023-05-10T08:25:59;101322.13;;;12.99;100.00
75414;BME280;64758;52.122;5.404;2023-05-10T08:28:26;101321.34;;;13.05;100.00
75414;BME280;64758;52.122;5.404;2023-05-10T08:30:53;101312.22;;;13.14;100.00
75414;BME280;64758;52.122;5.404;2023-05-10T08:33:20;101328.66;;;13.18;100.00
75414;BME280;64758;52.122;5.404;2023-05-10T08:35:46;101324.31;;;13.17;100.00
75414;BME280;64758;52.122;5.404;2023-05-10T08:38:13;101329.22;;;13.13;100.00
75414;BME280;64758;52.122;5.404;2023-05-10T08:40:44;101337.88;;;13.15;100.00
75414;BME280;64758;52.122;5.404;2023-05-10T08:43:11;101342.25;;;13.23;100.00
75414;BME280;64758;52.122;5.404;2023-05-10T08:45:40;101346.38;;;13.25;100.00
75414;BME280;64758;52.122;5.404;2023-05-10T08:48:08;101349.47;;;13.29;100.00
75414;BME280;64758;52.122;5.404;2023-05-10T08:50:36;101356.69;;;13.28;100.00
75414;BME280;64758;52.122;5.404;2023-05-10T08:53:06;101356.69;;;13.28;100.00
75414;BME280;64758;52.122;5.404;2023-05-10T08:55:33;101361.00;;;13.29;100.00
75414;BME280;64758;52.122;5.404;2023-05-10T08:58:00;101349.94;;;13.32;100.00
75414;BME280;64758;52.122;5.404;2023-05-10T09:00:27;101358.84;;;13.39;100.00
75414;BME280;64758;52.122;5.404;2023-05-10T09:02:54;101358.06;;;13.45;100.00
75414;BME280;64758;52.122;5.404;2023-05-10T09:05:21;101349.72;;;13.55;100.00
75414;BME280;64758;52.122;5.404;2023-05-10T09:07:47;101357.03;;;13.67;100.00
75414;BME280;64758;52.122;5.404;2023-05-10T09:10:15;101354.59;;;13.72;100.00
75414;BME280;64758;52.122;5.404;2023-05-10T09:12:43;101357.94;;;13.81;100.00
75414;BME280;64758;52.122;5.404;2023-05-10T09:15:10;101355.50;;;13.86;100.00
75414;BME280;64758;52.122;5.404;2023-05-10T09:17:38;101349.44;;;13.98;100.00
75414;BME280;64758;52.122;5.404;2023-05-10T09:20:06;101352.44;;;14.16;100.00
75414;BME280;64758;52.122;5.404;2023-05-10T09:22:34;101364.69;;;14.31;100.00
75414;BME280;64758;52.122;5.404;2023-05-10T09:25:08;101365.38;;;14.46;100.00
75414;BME280;64758;52.122;5.404;2023-05-10T09:27:35;101361.28;;;14.57;100.00
75414;BME280;64758;52.122;5.404;2023-05-10T09:30:03;101374.31;;;14.66;100.00
75414;BME280;64758;52.122;5.404;2023-05-10T09:35:26;101358.75;;;14.96;100.00
75414;BME280;64758;52.122;5.404;2023-05-10T09:37:58;101363.13;;;15.10;98.68
75414;BME280;64758;52.122;5.404;2023-05-10T09:40:27;101366.88;;;15.15;98.49
75414;BME280;64758;52.122;5.404;2023-05-10T09:43:06;101367.28;;;15.25;96.68
75414;BME280;64758;52.122;5.404;2023-05-10T09:45:35;101368.75;;;15.34;97.35
75414;BME280;64758;52.122;5.404;2023-05-10T09:48:04;101374.53;;;15.44;96.57
75414;BME280;64758;52.122;5.404;2023-05-10T09:50:32;101383.81;;;15.54;97.69
75414;BME280;64758;52.122;5.404;2023-05-10T09:53:02;101377.22;;;15.44;95.46
75414;BME280;64758;52.122;5.404;2023-05-10T09:58:02;101388.94;;;15.43;93.49
75414;BME280;64758;52.122;5.404;2023-05-10T10:00:34;101385.03;;;15.39;96.37
75414;BME280;64758;52.122;5.404;2023-05-10T10:03:02;101401.09;;;15.32;95.98
75414;BME280;64758;52.122;5.404;2023-05-10T10:05:35;101399.41;;;15.25;93.32
75414;BME280;64758;52.122;5.404;2023-05-10T10:08:03;101391.31;;;15.06;93.02
75414;BME280;64758;52.122;5.404;2023-05-10T10:10:32;101397.88;;;14.97;95.00
75414;BME280;64758;52.122;5.404;2023-05-10T10:12:59;101399.94;;;14.95;94.84
75414;BME280;64758;52.122;5.404;2023-05-10T10:15:26;101401.78;;;14.94;94.58
75414;BME280;64758;52.122;5.404;2023-05-10T10:17:53;101407.59;;;15.04;94.98
75414;BME280;64758;52.122;5.404;2023-05-10T10:20:22;101408.84;;;15.15;94.95
75414;BME280;64758;52.122;5.404;2023-05-10T10:22:49;101406.78;;;15.17;93.72
75414;BME280;64758;52.122;5.404;2023-05-10T10:25:17;101408.03;;;15.21;93.29
75414;BME280;64758;52.122;5.404;2023-05-10T10:28:00;101407.22;;;15.20;94.74
75414;BME280;64758;52.122;5.404;2023-05-10T10:30:43;101408.44;;;15.18;93.95
75414;BME280;64758;52.122;5.404;2023-05-10T10:33:36;101406.78;;;15.17;94.33
75414;BME280;64758;52.122;5.404;2023-05-10T10:36:05;101411.13;;;15.18;94.24
75414;BME280;64758;52.122;5.404;2023-05-10T10:41:34;101406.59;;;15.25;94.14
75414;BME280;64758;52.122;5.404;2023-05-10T10:46:59;101411.78;;;15.26;93.21
75414;BME280;64758;52.122;5.404;2023-05-10T10:49:27;101413.38;;;15.21;92.03
75414;BME280;64758;52.122;5.404;2023-05-10T10:54:50;101403.78;;;15.32;92.93
75414;BME280;64758;52.122;5.404;2023-05-10T10:57:18;101419.66;;;15.40;92.43
75414;BME280;64758;52.122;5.404;2023-05-10T10:59:45;101409.97;;;15.46;92.26
75414;BME280;64758;52.122;5.404;2023-05-10T11:02:41;101405.44;;;15.46;93.56
75414;BME280;64758;52.122;5.404;2023-05-10T11:05:42;101413.88;;;15.50;93.38
75414;BME280;64758;52.122;5.404;2023-05-10T11:08:28;101419.44;;;15.48;93.64
75414;BME280;64758;52.122;5.404;2023-05-10T11:16:17;101419.63;;;15.28;93.22
75414;BME280;64758;52.122;5.404;2023-05-10T11:19:04;101422.47;;;15.26;92.27
75414;BME280;64758;52.122;5.404;2023-05-10T11:21:32;101416.75;;;15.29;93.39
75414;BME280;64758;52.122;5.404;2023-05-10T11:24:00;101413.44;;;15.27;93.03
75414;BME280;64758;52.122;5.404;2023-05-10T11:26:32;101416.13;;;15.33;93.70
75414;BME280;64758;52.122;5.404;2023-05-10T11:29:00;101412.22;;;15.42;93.40
75414;BME280;64758;52.122;5.404;2023-05-10T11:31:28;101430.78;;;15.57;92.30
75414;BME280;64758;52.122;5.404;2023-05-10T11:33:57;101416.19;;;15.72;91.69
75414;BME280;64758;52.122;5.404;2023-05-10T11:36:26;101417.81;;;15.93;89.87
75414;BME280;64758;52.122;5.404;2023-05-10T11:38:55;101423.78;;;16.21;90.07
75414;BME280;64758;52.122;5.404;2023-05-10T11:41:23;101419.44;;;16.52;88.84
75414;BME280;64758;52.122;5.404;2023-05-10T11:43:51;101408.22;;;16.74;88.00
75414;BME280;64758;52.122;5.404;2023-05-10T11:46:19;101416.84;;;16.83;85.07
75414;BME280;64758;52.122;5.404;2023-05-10T11:48:49;101421.22;;;16.71;85.13
75414;BME280;64758;52.122;5.404;2023-05-10T11:51:20;101412.00;;;16.54;84.55
75414;BME280;64758;52.122;5.404;2023-05-10T11:53:47;101416.34;;;16.49;86.59
75414;BME280;64758;52.122;5.404;2023-05-10T11:56:14;101414.09;;;16.39;84.48
75414;BME280;64758;52.122;5.404;2023-05-10T11:58:40;101424.22;;;16.37;85.36
75414;BME280;64758;52.122;5.404;2023-05-10T12:01:07;101418.00;;;16.30;87.39
75414;BME280;64758;52.122;5.404;2023-05-10T12:03:35;101426.69;;;16.13;85.86
75414;BME280;64758;52.122;5.404;2023-05-10T12:06:02;101434.31;;;16.09;88.00
75414;BME280;64758;52.122;5.404;2023-05-10T12:08:30;101430.41;;;16.12;89.07
75414;BME280;64758;52.122;5.404;2023-05-10T12:11:08;101432.47;;;16.16;87.55
75414;BME280;64758;52.122;5.404;2023-05-10T12:13:38;101427.91;;;16.17;85.55
75414;BME280;64758;52.122;5.404;2023-05-10T12:16:16;101434.09;;;16.24;85.56
75414;BME280;64758;52.122;5.404;2023-05-10T12:18:44;101433.31;;;16.36;86.19
75414;BME280;64758;52.122;5.404;2023-05-10T12:21:11;101427.91;;;16.43;86.62
75414;BME280;64758;52.122;5.404;2023-05-10T12:23:41;101424.38;;;16.49;85.91
75414;BME280;64758;52.122;5.404;2023-05-10T12:26:11;101431.19;;;16.58;86.28
75414;BME280;64758;52.122;5.404;2023-05-10T12:28:38;101425.78;;;16.64;85.39
75414;BME280;64758;52.122;5.404;2023-05-10T12:31:06;101430.50;;;16.75;85.41
75414;BME280;64758;52.122;5.404;2023-05-10T12:33:41;101423.44;;;16.87;84.68
75414;BME280;64758;52.122;5.404;2023-05-10T12:36:10;101426.91;;;16.94;82.91
75414;BME280;64758;52.122;5.404;2023-05-10T12:38:39;101421.28;;;17.08;82.71
75414;BME280;64758;52.122;5.404;2023-05-10T12:41:11;101412.50;;;17.26;81.30
75414;BME280;64758;52.122;5.404;2023-05-10T12:43:38;101422.41;;;17.38;81.73
75414;BME280;64758;52.122;5.404;2023-05-10T12:46:10;101414.06;;;17.46;81.75
75414;BME280;64758;52.122;5.404;2023-05-10T12:48:38;101428.84;;;17.62;82.75
75414;BME280;64758;52.122;5.404;2023-05-10T12:51:05;101423.63;;;17.67;84.99
75414;BME280;64758;52.122;5.404;2023-05-10T12:53:36;101420.50;;;17.45;80.58
75414;BME280;64758;52.122;5.404;2023-05-10T12:56:03;101431.25;;;17.39;80.93
75414;BME280;64758;52.122;5.404;2023-05-10T12:58:29;101432.53;;;17.30;82.67
75414;BME280;64758;52.122;5.404;2023-05-10T13:01:01;101434.59;;;17.28;80.64
75414;BME280;64758;52.122;5.404;2023-05-10T13:03:28;101441.25;;;17.19;79.84
75414;BME280;64758;52.122;5.404;2023-05-10T13:05:55;101441.06;;;17.14;81.59
75414;BME280;64758;52.122;5.404;2023-05-10T13:08:21;101443.38;;;17.04;80.64
75414;BME280;64758;52.122;5.404;2023-05-10T13:10:48;101450.47;;;16.92;82.42
75414;BME280;64758;52.122;5.404;2023-05-10T13:13:15;101455.66;;;16.80;82.52
75414;BME280;64758;52.122;5.404;2023-05-10T13:15:41;101455.38;;;16.38;85.95
75414;BME280;64758;52.122;5.404;2023-05-10T13:18:08;101473.72;;;16.02;87.99
75414;BME280;64758;52.122;5.404;2023-05-10T13:20:34;101470.75;;;15.65;90.83
75414;BME280;64758;52.122;5.404;2023-05-10T13:23:01;101478.88;;;15.25;93.83
75414;BME280;64758;52.122;5.404;2023-05-10T13:25:28;101478.34;;;14.95;97.62